createdAt,value
2023-04-13T00:03:37.557Z,24.00
2023-04-13T00:08:42.989Z,26.13
2023-04-13T00:13:47.596Z,30.30
2023-04-13T00:18:52.431Z,19.45
2023-04-13T00:23:54.841Z,18.33
2023-04-13T00:28:57.175Z,24.77
2023-04-13T00:34:00.796Z,21.95
2023-04-13T00:39:03.751Z,17.33
2023-04-13T00:44:09.021Z,19.02
2023-04-13T00:49:12.738Z,23.20
2023-04-13T00:54:16.905Z,14.75
2023-04-13T00:59:19.853Z,17.35
2023-04-13T01:04:26.060Z,12.95
2023-04-13T01:10:09.828Z,13.93
2023-04-13T01:15:15.046Z,19.48
2023-04-13T01:20:18.082Z,9.85
2023-04-13T01:25:39.439Z,19.02
2023-04-13T01:30:43.049Z,19.10
2023-04-13T01:35:46.613Z,34.90
2023-04-13T01:40:51.887Z,22.90
2023-04-13T01:46:04.902Z,16.50
2023-04-13T01:51:18.121Z,14.52
2023-04-13T01:56:24.353Z,17.35
2023-04-13T02:01:32.209Z,15.03
2023-04-13T02:06:36.959Z,17.13
2023-04-13T02:11:44.274Z,14.23
2023-04-13T02:16:46.710Z,19.33
2023-04-13T02:21:50.010Z,20.13
2023-04-13T02:26:53.691Z,15.20
2023-04-13T02:31:57.919Z,20.27
2023-04-13T02:37:00.910Z,11.43
2023-04-13T02:42:03.400Z,26.95
2023-04-13T02:47:07.652Z,11.70
2023-04-13T02:52:10.978Z,7.78
2023-04-13T02:57:25.231Z,13.05
2023-04-13T03:02:30.220Z,12.25
2023-04-13T03:07:34.246Z,5.95
2023-04-13T03:12:36.989Z,20.88
2023-04-13T03:17:41.461Z,15.77
2023-04-13T03:22:46.118Z,7.72
2023-04-13T03:27:48.308Z,7.55
2023-04-13T03:32:53.853Z,17.48
2023-04-13T03:38:00.110Z,13.48
2023-04-13T03:43:10.717Z,9.00
2023-04-13T03:48:20.082Z,7.07
2023-04-13T03:53:22.357Z,13.80
2023-04-13T03:58:28.032Z,10.02
2023-04-13T04:03:30.468Z,8.15
2023-04-13T04:08:37.832Z,13.85
2023-04-13T04:13:44.791Z,27.10
2023-04-13T04:18:47.496Z,19.58
2023-04-13T04:23:53.868Z,14.50
2023-04-13T04:29:02.555Z,6.07
2023-04-13T04:34:07.357Z,10.50
2023-04-13T04:39:10.915Z,5.90
2023-04-13T04:44:25.382Z,2.70
2023-04-13T04:49:28.663Z,11.20
2023-04-13T04:54:32.062Z,21.45
2023-04-13T04:59:34.975Z,5.55
2023-04-13T05:04:39.707Z,16.35
2023-04-13T05:09:42.571Z,5.10
2023-04-13T05:14:48.204Z,5.75
2023-04-13T05:19:52.653Z,7.25
2023-04-13T05:25:01.862Z,4.90
2023-04-13T05:30:06.217Z,2.83
2023-04-13T05:35:12.141Z,7.68
2023-04-13T05:40:15.156Z,7.57
2023-04-13T05:45:18.075Z,3.75
2023-04-13T05:50:34.270Z,7.10
2023-04-13T05:55:37.205Z,9.38
2023-04-13T06:00:41.353Z,8.15
2023-04-13T06:05:48.449Z,5.88
2023-04-13T06:10:50.744Z,8.43
2023-04-13T06:15:55.889Z,12.10
2023-04-13T06:20:58.929Z,8.55
2023-04-13T06:26:03.720Z,7.57
2023-04-13T06:31:17.692Z,3.05
2023-04-13T06:36:22.665Z,3.33
2023-04-13T06:41:27.335Z,4.45
2023-04-13T06:46:46.356Z,7.57
2023-04-13T06:51:48.699Z,5.47
2023-04-13T06:56:51.765Z,2.63
2023-04-13T07:01:54.263Z,16.85
2023-04-13T07:06:56.966Z,1.58
2023-04-13T07:12:07.264Z,8.50
2023-04-13T07:17:11.968Z,10.02
2023-04-13T07:22:16.094Z,8.55
2023-04-13T07:27:19.619Z,4.60
2023-04-13T07:32:28.127Z,2.33
2023-04-13T07:37:33.027Z,6.05
2023-04-13T07:42:36.219Z,3.50
2023-04-13T07:47:38.640Z,5.07
2023-04-13T07:52:44.009Z,5.28
2023-04-13T07:57:46.480Z,3.70
2023-04-13T08:02:49.501Z,5.78
2023-04-13T08:07:56.689Z,4.00
2023-04-13T08:13:00.272Z,2.85
2023-04-13T08:18:03.853Z,8.07
2023-04-13T08:23:07.172Z,4.05
2023-04-13T08:28:09.725Z,1.17
2023-04-13T08:33:12.024Z,0.93
2023-04-13T08:38:14.314Z,4.10
2023-04-13T08:43:22.109Z,2.50
2023-04-13T08:48:24.522Z,5.60
2023-04-13T08:53:29.971Z,5.80
2023-04-13T08:58:35.334Z,3.60
2023-04-13T09:04:06.880Z,9.20
2023-04-13T09:09:15.028Z,4.38
2023-04-13T09:14:22.136Z,4.32
2023-04-13T09:19:32.715Z,10.73
2023-04-13T09:24:41.308Z,14.15
2023-04-13T09:29:52.316Z,7.00
2023-04-13T09:35:04.884Z,2.90
2023-04-13T09:40:15.229Z,2.88
2023-04-13T09:45:17.418Z,7.35
2023-04-13T09:50:28.906Z,2.00
2023-04-13T09:55:33.113Z,3.28
2023-04-13T10:00:38.401Z,6.38
2023-04-13T10:05:57.902Z,2.50
2023-04-13T10:11:04.195Z,9.45
2023-04-13T10:16:30.372Z,4.95
2023-04-13T10:21:40.060Z,4.85
2023-04-13T10:26:46.184Z,5.88
2023-04-13T10:31:51.516Z,3.13
2023-04-13T10:36:56.230Z,8.38
2023-04-13T10:42:02.825Z,4.47
2023-04-13T10:47:06.360Z,4.57
2023-04-13T10:52:11.027Z,8.27
2023-04-13T10:57:15.153Z,5.93
2023-04-13T11:02:18.297Z,7.57
2023-04-13T11:07:26.887Z,10.23
2023-04-13T11:12:29.103Z,1.37
2023-04-13T11:17:31.270Z,2.13
2023-04-13T11:22:36.440Z,7.53
2023-04-13T11:27:38.621Z,9.98
2023-04-13T11:32:43.387Z,9.65
2023-04-13T11:37:49.542Z,5.50
2023-04-13T11:42:54.715Z,5.22
2023-04-13T11:47:58.940Z,19.67
2023-04-13T11:53:01.772Z,1.95
2023-04-13T11:58:11.356Z,1.52
2023-04-13T12:08:25.968Z,6.43
2023-04-13T12:13:38.159Z,4.88
2023-04-13T12:18:46.094Z,4.78
2023-04-13T12:23:56.178Z,11.13
2023-04-13T12:29:01.913Z,2.30
2023-04-13T12:34:07.757Z,1.58
2023-04-13T12:39:09.953Z,4.13
2023-04-13T12:44:12.296Z,4.75
2023-04-13T12:49:14.645Z,7.70
2023-04-13T12:54:18.077Z,8.32
2023-04-13T12:59:23.128Z,8.60
2023-04-13T13:04:25.728Z,5.18
2023-04-13T13:09:28.177Z,3.60
2023-04-13T13:14:32.179Z,6.75
2023-04-13T13:19:34.416Z,6.03
2023-04-13T13:24:36.722Z,6.75
2023-04-13T13:29:38.855Z,4.68
2023-04-13T13:34:41.417Z,4.00
2023-04-13T13:39:43.569Z,8.85
2023-04-13T13:44:45.751Z,8.63
2023-04-13T13:49:47.881Z,8.35
2023-04-13T13:55:19.759Z,10.40
2023-04-13T14:00:23.165Z,4.25
2023-04-13T14:05:25.449Z,9.60
2023-04-13T14:10:28.357Z,12.65
2023-04-13T14:15:30.808Z,3.85
2023-04-13T14:20:34.272Z,9.52
2023-04-13T14:25:36.737Z,11.90
2023-04-13T14:30:41.953Z,9.18
2023-04-13T14:35:44.221Z,10.25
2023-04-13T14:40:46.658Z,10.75
2023-04-13T14:45:53.048Z,10.98
2023-04-13T14:50:56.455Z,9.43
2023-04-13T14:55:58.922Z,8.82
2023-04-13T15:01:01.486Z,4.60
2023-04-13T15:06:05.283Z,7.07
2023-04-13T15:11:08.664Z,10.98
2023-04-13T15:16:11.691Z,5.97
2023-04-13T15:21:13.883Z,7.82
2023-04-13T15:26:17.730Z,7.72
2023-04-13T15:31:22.177Z,8.43
2023-04-13T15:36:24.333Z,12.43
2023-04-13T15:41:27.745Z,20.23
2023-04-13T15:46:30.067Z,3.17
2023-04-13T15:51:32.289Z,9.80
2023-04-13T15:56:34.372Z,10.98
2023-04-13T16:01:47.236Z,8.50
2023-04-13T16:07:04.998Z,9.05
2023-04-13T16:12:12.231Z,10.77
2023-04-13T16:17:18.652Z,6.93
2023-04-13T16:22:20.786Z,6.82
2023-04-13T16:27:22.892Z,2.90
2023-04-13T16:32:25.239Z,7.22
2023-04-13T16:37:27.321Z,7.00
2023-04-13T16:42:29.498Z,7.88
2023-04-13T16:47:32.921Z,3.15
2023-04-13T16:52:38.714Z,5.85
2023-04-13T16:57:42.239Z,5.63
2023-04-13T17:02:44.512Z,13.80
2023-04-13T17:07:48.202Z,5.80
2023-04-13T17:12:50.533Z,9.55
2023-04-13T17:17:52.809Z,6.43
2023-04-13T17:22:55.041Z,7.15
2023-04-13T17:27:57.127Z,8.38
2023-04-13T17:32:59.253Z,12.23
2023-04-13T17:38:01.402Z,12.90
2023-04-13T17:43:05.704Z,3.65
2023-04-13T17:48:07.879Z,8.63
2023-04-13T17:53:10.403Z,6.47
2023-04-13T17:58:12.895Z,2.50
2023-04-13T18:03:15.218Z,6.00
2023-04-13T18:08:17.568Z,2.83
2023-04-13T18:13:20.000Z,8.75
2023-04-13T18:18:24.452Z,4.80
2023-04-13T18:23:26.547Z,5.63
2023-04-13T18:28:29.776Z,1.38
2023-04-13T18:33:32.548Z,8.52
2023-04-13T18:38:34.690Z,10.00
2023-04-13T18:43:36.967Z,13.15
2023-04-13T18:48:39.074Z,10.32
2023-04-13T18:53:41.921Z,8.95
2023-04-13T18:58:44.878Z,8.68
2023-04-13T19:03:47.211Z,13.85
2023-04-13T19:08:49.452Z,17.80
2023-04-13T19:13:51.748Z,15.85
2023-04-13T19:18:53.884Z,25.58
2023-04-13T19:23:56.772Z,20.65
2023-04-13T19:29:00.384Z,15.95
2023-04-13T19:34:02.740Z,17.42
2023-04-13T19:39:07.055Z,14.25
2023-04-13T19:44:09.178Z,27.73
2023-04-13T19:49:11.972Z,45.10
2023-04-13T19:54:14.121Z,85.68
2023-04-13T19:59:16.464Z,31.92
2023-04-13T20:04:18.663Z,29.50
2023-04-13T20:09:21.162Z,22.42
2023-04-13T20:14:23.407Z,22.67
2023-04-13T20:19:25.937Z,25.25
2023-04-13T20:24:28.069Z,13.50
2023-04-13T20:29:30.165Z,10.88
2023-04-13T20:34:34.984Z,26.10
2023-04-13T20:39:38.924Z,14.70
2023-04-13T20:44:44.717Z,13.23
2023-04-13T20:49:52.032Z,15.77
2023-04-13T20:54:57.031Z,13.95
2023-04-13T20:59:59.081Z,15.05
2023-04-13T21:05:03.264Z,19.45
2023-04-13T21:10:06.823Z,21.85
2023-04-13T21:15:09.391Z,18.83
2023-04-13T21:20:12.743Z,22.75
2023-04-13T21:25:14.853Z,18.48
2023-04-13T21:30:17.050Z,18.25
2023-04-13T21:35:19.564Z,35.33
2023-04-13T21:40:24.133Z,27.23
2023-04-13T21:45:26.260Z,20.23
2023-04-13T21:50:28.382Z,28.00
2023-04-13T21:55:30.646Z,17.48
2023-04-13T22:00:32.788Z,18.80
2023-04-13T22:05:34.913Z,29.52
2023-04-13T22:10:36.970Z,14.57
2023-04-13T22:15:39.185Z,24.20
2023-04-13T22:20:41.415Z,27.58
2023-04-13T22:25:51.309Z,36.15
2023-04-13T22:30:53.562Z,22.33
2023-04-13T22:35:55.615Z,23.98
2023-04-13T22:40:58.514Z,35.60
2023-04-13T22:46:01.150Z,15.15
2023-04-13T22:51:06.008Z,19.08
2023-04-13T22:56:08.117Z,25.67
2023-04-13T23:01:10.296Z,28.10
2023-04-13T23:06:12.389Z,17.73
2023-04-13T23:11:14.536Z,23.50
2023-04-13T23:16:16.731Z,36.35
2023-04-13T23:21:18.940Z,15.00
2023-04-13T23:26:21.330Z,20.88
2023-04-13T23:31:23.427Z,18.65
2023-04-13T23:36:26.447Z,22.60
2023-04-13T23:41:28.550Z,24.30
2023-04-13T23:46:30.705Z,19.45
2023-04-13T23:51:32.786Z,17.35
2023-04-13T23:56:35.023Z,15.23
